Terminal Aerodrome Forecast
Issued by NWS Miami, FL

Home | Current Version | Previous Version | Text Only | Print | Product List | Glossary On
Versions: 1 2 3 4 5 6 7 8 9 10 11 12 13 14 15 16 17 18 19 20 21 22 23 24
000
FTUS42 KMFL 300858 AAA
TAFPBI
TAF AMD
KPBI 300858Z 3009/3106 VRB04KT P6SM FEW030 SCT250
     FM301600 08009KT P6SM VCSH SCT030 SCT050 SCT250
     FM302100 11010KT P6SM VCSH SCT025 BKN040 BKN250
     FM310200 12004KT P6SM FEW030 SCT080 BKN250=

USA.gov is the U.S. government's official web portal to all federal, state and local government web resources and services.